createdAt,value
2023-03-27T00:00:07.293Z,950.00
2023-03-27T00:01:07.236Z,950.02
2023-03-27T00:02:07.175Z,950.01
2023-03-27T00:03:07.134Z,949.97
2023-03-27T00:04:07.091Z,949.97
2023-03-27T00:05:06.954Z,949.98
2023-03-27T00:06:06.894Z,949.97
2023-03-27T00:07:06.830Z,950.00
2023-03-27T00:08:06.792Z,949.96
2023-03-27T00:09:06.681Z,949.96
2023-03-27T00:10:06.617Z,950.00
2023-03-27T00:11:06.542Z,950.03
2023-03-27T00:12:06.482Z,949.97
2023-03-27T00:13:06.409Z,950.03
2023-03-27T00:14:06.344Z,950.04
2023-03-27T00:15:06.275Z,950.04
2023-03-27T00:16:06.210Z,950.00
2023-03-27T00:17:06.173Z,950.00
2023-03-27T00:18:06.108Z,949.95
2023-03-27T00:19:06.000Z,950.01
2023-03-27T00:20:05.935Z,950.00
2023-03-27T00:21:05.867Z,949.95
2023-03-27T00:22:05.800Z,949.99
2023-03-27T00:23:05.727Z,949.96
2023-03-27T00:24:05.664Z,950.00
2023-03-27T00:25:05.593Z,949.99
2023-03-27T00:26:05.534Z,949.95
2023-03-27T00:27:05.461Z,949.95
2023-03-27T00:28:05.386Z,949.96
2023-03-27T00:29:05.327Z,950.01
2023-03-27T00:30:05.249Z,950.02
2023-03-27T00:31:05.221Z,950.01
2023-03-27T00:32:05.119Z,950.08
2023-03-27T00:33:05.105Z,950.05
2023-03-27T00:34:04.985Z,950.02
2023-03-27T00:35:04.934Z,950.00
2023-03-27T00:36:04.892Z,950.00
2023-03-27T00:37:04.778Z,949.98
2023-03-27T00:38:04.702Z,949.97
2023-03-27T00:39:04.640Z,949.98
2023-03-27T00:40:04.598Z,949.97
2023-03-27T00:41:04.539Z,949.96
2023-03-27T00:42:04.456Z,949.95
2023-03-27T00:43:04.371Z,949.97
2023-03-27T00:44:04.310Z,949.95
2023-03-27T00:45:04.245Z,949.97
2023-03-27T00:46:04.202Z,949.95
2023-03-27T00:47:04.112Z,949.95
2023-03-27T00:48:04.062Z,949.90
2023-03-27T00:49:03.958Z,949.92
2023-03-27T00:50:03.893Z,949.92
2023-03-27T00:51:03.844Z,949.93
2023-03-27T00:52:03.762Z,949.88
2023-03-27T00:53:03.692Z,950.00
2023-03-27T00:54:03.629Z,949.97
2023-03-27T00:55:03.554Z,949.93
2023-03-27T00:56:03.497Z,949.91
2023-03-27T00:57:03.463Z,949.90
2023-03-27T00:58:03.348Z,949.88
2023-03-27T00:59:03.287Z,949.90
2023-03-27T01:00:03.219Z,950.04
2023-03-27T01:01:03.216Z,949.90
2023-03-27T01:02:03.078Z,949.89
2023-03-27T01:03:03.059Z,949.92
2023-03-27T01:04:02.937Z,949.93
2023-03-27T01:05:02.879Z,949.96
2023-03-27T01:06:02.807Z,949.95
2023-03-27T01:07:02.741Z,949.97
2023-03-27T01:08:02.673Z,949.97
2023-03-27T01:09:02.597Z,949.95
2023-03-27T01:10:02.532Z,949.97
2023-03-27T01:11:02.472Z,949.99
2023-03-27T01:12:02.415Z,949.99
2023-03-27T01:13:02.340Z,950.00
2023-03-27T01:14:02.268Z,950.00
2023-03-27T01:15:02.192Z,950.00
2023-03-27T01:16:02.184Z,949.97
2023-03-27T01:17:02.070Z,949.98
2023-03-27T01:18:02.063Z,949.99
2023-03-27T01:19:01.924Z,949.99
2023-03-27T01:20:01.854Z,950.01
2023-03-27T01:21:01.784Z,950.02
2023-03-27T01:22:01.728Z,950.00
2023-03-27T01:23:01.652Z,949.98
2023-03-27T01:24:01.573Z,949.99
2023-03-27T01:25:01.512Z,950.06
2023-03-27T01:26:01.444Z,950.12
2023-03-27T01:27:01.378Z,950.01
2023-03-27T01:28:01.304Z,950.04
2023-03-27T01:29:01.239Z,950.09
2023-03-27T01:30:01.178Z,950.07
2023-03-27T01:31:01.132Z,950.12
2023-03-27T01:32:01.036Z,950.16
2023-03-27T01:33:01.023Z,950.14
2023-03-27T01:34:00.898Z,950.12
2023-03-27T01:35:00.935Z,950.19
2023-03-27T01:36:00.769Z,950.17
2023-03-27T01:37:00.700Z,950.27
2023-03-27T01:38:00.624Z,950.16
2023-03-27T01:39:00.556Z,950.21
2023-03-27T01:40:00.485Z,950.18
2023-03-27T01:41:00.422Z,950.22
2023-03-27T01:42:00.355Z,950.20
2023-03-27T01:43:00.284Z,950.22
2023-03-27T01:44:00.216Z,950.22
2023-03-27T01:45:00.155Z,950.21
2023-03-27T01:46:00.093Z,950.23
2023-03-27T01:47:00.053Z,950.29
2023-03-27T01:47:59.957Z,950.23
2023-03-27T01:48:59.879Z,950.29
2023-03-27T01:49:59.812Z,950.35
2023-03-27T01:50:59.744Z,950.33
2023-03-27T01:51:59.671Z,950.27
2023-03-27T01:52:59.610Z,950.34
2023-03-27T01:53:59.536Z,950.33
2023-03-27T01:54:59.469Z,950.37
2023-03-27T01:55:59.406Z,950.30
2023-03-27T01:56:59.357Z,950.40
2023-03-27T01:57:59.262Z,950.42
2023-03-27T01:58:59.198Z,950.40
2023-03-27T02:00:18.289Z,950.43
2023-03-27T02:00:59.085Z,950.42
2023-03-27T02:01:58.993Z,950.34
2023-03-27T02:02:58.973Z,950.34
2023-03-27T02:03:58.881Z,950.35
2023-03-27T02:04:58.835Z,950.32
2023-03-27T02:05:58.723Z,950.36
2023-03-27T02:06:58.647Z,950.34
2023-03-27T02:07:58.576Z,950.34
2023-03-27T02:08:58.526Z,950.33
2023-03-27T02:09:58.444Z,950.31
2023-03-27T02:10:58.489Z,950.28
2023-03-27T02:11:58.309Z,950.35
2023-03-27T02:12:58.237Z,950.29
2023-03-27T02:13:58.174Z,950.32
2023-03-27T02:15:23.723Z,950.30
2023-03-27T02:15:58.079Z,950.31
2023-03-27T02:16:57.966Z,950.34
2023-03-27T02:17:58.008Z,950.36
2023-03-27T02:18:57.828Z,950.37
2023-03-27T02:19:57.762Z,950.39
2023-03-27T02:20:57.897Z,950.37
2023-03-27T02:21:57.625Z,950.39
2023-03-27T02:22:57.556Z,950.41
2023-03-27T02:23:57.494Z,950.37
2023-03-27T02:24:57.420Z,950.43
2023-03-27T02:25:57.347Z,950.43
2023-03-27T02:26:57.283Z,950.45
2023-03-27T02:27:57.219Z,950.49
2023-03-27T02:28:57.147Z,950.49
2023-03-27T02:29:57.079Z,950.50
2023-03-27T02:31:06.008Z,950.47
2023-03-27T02:31:56.953Z,950.49
2023-03-27T02:32:56.913Z,950.52
2023-03-27T02:33:56.806Z,950.52
2023-03-27T02:34:56.740Z,950.49
2023-03-27T02:35:56.688Z,950.48
2023-03-27T02:36:56.603Z,950.51
2023-03-27T02:37:56.553Z,950.54
2023-03-27T02:38:56.468Z,950.59
2023-03-27T02:39:56.400Z,950.52
2023-03-27T02:40:56.476Z,950.60
2023-03-27T02:41:56.257Z,950.58
2023-03-27T02:42:56.192Z,950.56
2023-03-27T02:43:56.129Z,950.61
2023-03-27T02:44:56.055Z,950.60
2023-03-27T02:45:56.051Z,950.62
2023-03-27T02:46:55.918Z,950.61
2023-03-27T02:47:55.879Z,950.63
2023-03-27T02:48:55.781Z,950.66
2023-03-27T02:49:55.716Z,950.71
2023-03-27T02:50:56.001Z,950.68
2023-03-27T02:51:55.585Z,950.70
2023-03-27T02:52:55.511Z,950.70
2023-03-27T02:53:55.442Z,950.75
2023-03-27T02:54:55.397Z,950.81
2023-03-27T02:55:55.302Z,950.79
2023-03-27T02:56:55.315Z,950.79
2023-03-27T02:57:55.171Z,950.78
2023-03-27T02:58:55.098Z,950.82
2023-03-27T02:59:55.041Z,950.83
2023-03-27T03:00:55.230Z,950.84
2023-03-27T03:01:54.947Z,950.84
2023-03-27T03:02:54.917Z,950.88
2023-03-27T03:03:54.760Z,950.92
2023-03-27T03:04:54.692Z,950.90
2023-03-27T03:05:54.630Z,950.92
2023-03-27T03:06:54.555Z,950.94
2023-03-27T03:07:54.515Z,950.96
2023-03-27T03:08:54.423Z,951.00
2023-03-27T03:09:54.350Z,951.04
2023-03-27T03:10:54.379Z,951.08
2023-03-27T03:11:54.243Z,951.10
2023-03-27T03:12:54.146Z,951.12
2023-03-27T03:13:54.079Z,951.16
2023-03-27T03:14:54.018Z,951.16
2023-03-27T03:15:53.940Z,951.18
2023-03-27T03:16:53.908Z,951.19
2023-03-27T03:17:53.931Z,951.19
2023-03-27T03:18:53.739Z,951.21
2023-03-27T03:19:53.679Z,951.30
2023-03-27T03:20:53.673Z,951.27
2023-03-27T03:21:53.535Z,951.32
2023-03-27T03:22:53.462Z,951.35
2023-03-27T03:23:57.466Z,951.30
2023-03-27T03:24:53.323Z,951.39
2023-03-27T03:25:53.325Z,951.45
2023-03-27T03:26:53.188Z,951.45
2023-03-27T03:27:53.121Z,951.47
2023-03-27T03:29:00.521Z,951.53
2023-03-27T03:29:52.982Z,951.51
2023-03-27T03:30:52.935Z,951.55
2023-03-27T03:31:52.840Z,951.57
2023-03-27T03:32:52.812Z,951.67
2023-03-27T03:33:52.712Z,951.74
2023-03-27T03:34:52.649Z,951.75
2023-03-27T03:35:52.630Z,951.78
2023-03-27T03:36:52.498Z,951.79
2023-03-27T03:37:52.435Z,951.80
2023-03-27T03:38:52.361Z,951.78
2023-03-27T03:39:52.309Z,951.86
2023-03-27T03:40:52.226Z,951.80
2023-03-27T03:41:52.153Z,951.91
2023-03-27T03:42:52.092Z,951.94
2023-03-27T03:43:52.018Z,952.00
2023-03-27T03:44:51.976Z,951.99
2023-03-27T03:45:51.918Z,952.02
2023-03-27T03:46:51.814Z,952.06
2023-03-27T03:47:51.806Z,952.16
2023-03-27T03:48:51.678Z,952.09
2023-03-27T03:49:51.614Z,952.13
2023-03-27T03:50:51.541Z,952.13
2023-03-27T03:52:04.092Z,952.25
2023-03-27T03:52:51.404Z,952.18
2023-03-27T03:53:51.334Z,952.25
2023-03-27T03:54:51.261Z,952.35
2023-03-27T03:55:51.196Z,952.29
2023-03-27T03:56:51.174Z,952.36
2023-03-27T03:57:51.060Z,952.41
2023-03-27T03:58:50.984Z,952.41
2023-03-27T03:59:50.926Z,952.52
2023-03-27T04:00:50.855Z,952.51
2023-03-27T04:01:50.801Z,952.53
2023-03-27T04:02:50.755Z,952.55
2023-03-27T04:03:50.712Z,952.65
2023-03-27T04:04:50.575Z,952.63
2023-03-27T04:05:50.507Z,952.64
2023-03-27T04:06:50.434Z,952.67
2023-03-27T04:07:50.368Z,952.71
2023-03-27T04:08:50.297Z,952.66
2023-03-27T04:09:50.236Z,952.77
2023-03-27T04:10:50.169Z,952.77
2023-03-27T04:11:50.092Z,952.84
2023-03-27T04:12:50.036Z,952.88
2023-03-27T04:13:49.954Z,952.92
2023-03-27T04:14:49.885Z,952.90
2023-03-27T04:15:49.839Z,952.95
2023-03-27T04:16:49.747Z,952.99
2023-03-27T04:17:49.740Z,953.04
2023-03-27T04:18:49.665Z,952.99
2023-03-27T04:19:49.543Z,953.07
2023-03-27T04:20:49.473Z,953.05
2023-03-27T04:21:49.402Z,953.07
2023-03-27T04:22:49.354Z,953.09
2023-03-27T04:23:49.278Z,953.06
2023-03-27T04:24:49.190Z,953.12
2023-03-27T04:25:49.184Z,953.16
2023-03-27T04:26:49.053Z,953.14
2023-03-27T04:27:49.000Z,953.24
2023-03-27T04:28:48.923Z,953.27
2023-03-27T04:29:48.941Z,953.32
2023-03-27T04:30:48.786Z,953.39
2023-03-27T04:31:48.774Z,953.43
2023-03-27T04:32:48.683Z,953.43
2023-03-27T04:33:48.578Z,953.45
2023-03-27T04:34:48.508Z,953.44
2023-03-27T04:36:05.376Z,953.51
2023-03-27T04:36:48.375Z,953.51
2023-03-27T04:37:48.311Z,953.52
2023-03-27T04:38:48.241Z,953.57
2023-03-27T04:39:48.170Z,953.61
2023-03-27T04:40:48.101Z,953.61
2023-03-27T04:41:48.045Z,953.62
2023-03-27T04:42:47.963Z,953.67
2023-03-27T04:43:47.893Z,953.73
2023-03-27T04:44:47.829Z,953.75
2023-03-27T04:45:47.758Z,953.77
2023-03-27T04:46:47.710Z,953.85
2023-03-27T04:47:47.673Z,953.89
2023-03-27T04:48:47.554Z,953.91
2023-03-27T04:49:47.480Z,953.97
2023-03-27T04:50:47.411Z,953.89
2023-03-27T04:51:47.345Z,954.03
2023-03-27T04:52:49.658Z,954.07
2023-03-27T04:53:47.208Z,954.13
2023-03-27T04:54:47.146Z,954.13
2023-03-27T04:55:47.068Z,954.12
2023-03-27T04:56:47.053Z,954.19
2023-03-27T04:57:46.928Z,954.20
2023-03-27T04:58:46.865Z,954.23
2023-03-27T04:59:46.802Z,954.29
2023-03-27T05:00:46.806Z,954.31
2023-03-27T05:01:46.691Z,954.37
2023-03-27T05:02:46.634Z,954.36
2023-03-27T05:03:46.568Z,954.41
2023-03-27T05:04:46.461Z,954.38
2023-03-27T05:05:46.373Z,954.47
2023-03-27T05:06:46.297Z,954.47
2023-03-27T05:07:46.259Z,954.49
2023-03-27T05:08:46.161Z,954.53
2023-03-27T05:09:46.097Z,954.55
2023-03-27T05:10:46.023Z,954.54
2023-03-27T05:11:45.957Z,954.57
2023-03-27T05:12:45.890Z,954.63
2023-03-27T05:13:45.822Z,954.62
2023-03-27T05:14:45.743Z,954.72
2023-03-27T05:15:45.678Z,954.76
2023-03-27T05:16:45.667Z,954.74
2023-03-27T05:17:45.552Z,954.71
2023-03-27T05:18:45.469Z,954.78
2023-03-27T05:19:45.401Z,954.86
2023-03-27T05:20:45.328Z,954.85
2023-03-27T05:21:45.275Z,954.91
2023-03-27T05:22:45.193Z,954.91
2023-03-27T05:23:45.132Z,954.96
2023-03-27T05:24:45.058Z,954.94
2023-03-27T05:25:44.986Z,954.99
2023-03-27T05:26:44.916Z,954.97
2023-03-27T05:27:44.848Z,955.00
2023-03-27T05:28:44.778Z,955.03
2023-03-27T05:29:46.654Z,955.06
2023-03-27T05:30:44.655Z,955.10
2023-03-27T05:31:44.574Z,955.17
2023-03-27T05:32:44.550Z,955.20
2023-03-27T05:33:44.432Z,955.23
2023-03-27T05:34:44.371Z,955.24
2023-03-27T05:35:44.320Z,955.26
2023-03-27T05:36:44.223Z,955.38
2023-03-27T05:37:44.156Z,955.31
2023-03-27T05:38:44.094Z,955.32
2023-03-27T05:39:44.010Z,955.33
2023-03-27T05:40:43.948Z,955.39
2023-03-27T05:41:43.880Z,955.48
2023-03-27T05:42:43.801Z,955.45
2023-03-27T05:43:43.736Z,955.51
2023-03-27T05:44:43.668Z,955.60
2023-03-27T05:45:43.623Z,955.62
2023-03-27T05:46:43.590Z,955.68
2023-03-27T05:47:43.472Z,955.65
2023-03-27T05:48:43.387Z,955.74
2023-03-27T05:49:43.340Z,955.71
2023-03-27T05:50:43.273Z,955.69
2023-03-27T05:51:47.168Z,955.85
2023-03-27T05:52:43.113Z,955.83
2023-03-27T05:53:43.049Z,955.85
2023-03-27T05:54:42.973Z,955.87
2023-03-27T05:55:42.917Z,955.88
2023-03-27T05:56:42.872Z,955.95
2023-03-27T05:57:42.767Z,955.91
2023-03-27T05:58:42.699Z,956.00
2023-03-27T05:59:42.629Z,956.02
2023-03-27T06:00:42.561Z,956.01
2023-03-27T06:01:42.487Z,956.04
2023-03-27T06:02:42.482Z,956.09
2023-03-27T06:03:42.487Z,956.07
2023-03-27T06:04:42.325Z,956.12
2023-03-27T06:05:42.223Z,956.17
2023-03-27T06:06:42.141Z,956.20
2023-03-27T06:07:43.503Z,956.25
2023-03-27T06:08:41.996Z,956.29
2023-03-27T06:09:41.933Z,956.28
2023-03-27T06:10:41.877Z,956.31
2023-03-27T06:11:41.788Z,956.35
2023-03-27T06:12:41.952Z,956.35
2023-03-27T06:13:41.647Z,956.33
2023-03-27T06:14:41.585Z,956.41
2023-03-27T06:15:41.561Z,956.46
2023-03-27T06:16:41.444Z,956.48
2023-03-27T06:17:41.407Z,956.53
2023-03-27T06:18:41.309Z,956.56
2023-03-27T06:19:41.235Z,956.58
2023-03-27T06:20:41.167Z,956.74
2023-03-27T06:21:41.148Z,956.65
2023-03-27T06:22:41.021Z,956.74
2023-03-27T06:23:41.005Z,956.75
2023-03-27T06:24:40.882Z,956.75
2023-03-27T06:25:40.817Z,956.77
2023-03-27T06:26:40.751Z,956.84
2023-03-27T06:27:40.673Z,956.84
2023-03-27T06:28:40.603Z,956.91
2023-03-27T06:29:40.535Z,956.88
2023-03-27T06:30:40.471Z,956.96
2023-03-27T06:31:40.439Z,956.92
2023-03-27T06:32:40.369Z,956.93
2023-03-27T06:33:40.260Z,957.05
2023-03-27T06:34:40.188Z,957.05
2023-03-27T06:35:40.146Z,957.05
2023-03-27T06:36:40.059Z,957.09
2023-03-27T06:37:39.976Z,957.13
2023-03-27T06:38:39.912Z,957.10
2023-03-27T06:39:39.844Z,957.19
2023-03-27T06:40:39.773Z,957.17
2023-03-27T06:41:39.707Z,957.26
2023-03-27T06:42:40.399Z,957.27
2023-03-27T06:43:39.560Z,957.33
2023-03-27T06:44:39.492Z,957.35
2023-03-27T06:45:39.424Z,957.33
2023-03-27T06:46:45.570Z,957.38
2023-03-27T06:47:48.192Z,957.41
2023-03-27T06:48:39.235Z,957.47
2023-03-27T06:49:39.141Z,957.51
2023-03-27T06:50:39.073Z,957.53
2023-03-27T06:51:39.013Z,957.54
2023-03-27T06:52:38.932Z,957.52
2023-03-27T06:53:38.865Z,957.60
2023-03-27T06:54:38.804Z,957.61
2023-03-27T06:55:38.723Z,957.67
2023-03-27T06:56:38.683Z,957.63
2023-03-27T06:57:38.591Z,957.76
2023-03-27T06:58:38.514Z,957.76
2023-03-27T06:59:38.440Z,957.80
2023-03-27T07:00:38.421Z,957.78
2023-03-27T07:01:38.323Z,957.81
2023-03-27T07:02:38.302Z,957.90
2023-03-27T07:03:38.158Z,957.87
2023-03-27T07:04:38.100Z,957.85
2023-03-27T07:05:38.046Z,957.96
2023-03-27T07:06:39.587Z,957.92
2023-03-27T07:07:40.347Z,957.95
2023-03-27T07:08:37.829Z,957.86
2023-03-27T07:09:39.801Z,957.97
2023-03-27T07:10:37.670Z,957.95
2023-03-27T07:11:37.604Z,957.98
2023-03-27T07:12:37.534Z,958.04
2023-03-27T07:13:37.470Z,957.97
2023-03-27T07:14:37.410Z,957.99
2023-03-27T07:15:37.353Z,958.08
2023-03-27T07:16:37.311Z,958.10
2023-03-27T07:17:48.061Z,958.07
2023-03-27T07:18:37.112Z,958.15
2023-03-27T07:19:37.040Z,958.13
2023-03-27T07:20:36.974Z,958.19
2023-03-27T07:21:36.905Z,958.17
2023-03-27T07:22:36.858Z,958.25
2023-03-27T07:23:36.758Z,958.34
2023-03-27T07:24:36.701Z,958.33
2023-03-27T07:25:36.626Z,958.34
2023-03-27T07:26:36.553Z,958.41
2023-03-27T07:27:36.486Z,958.41
2023-03-27T07:28:36.510Z,958.48
2023-03-27T07:29:36.449Z,958.44
2023-03-27T07:30:36.414Z,958.48
2023-03-27T07:31:51.619Z,958.55
2023-03-27T07:32:37.521Z,958.53
2023-03-27T07:33:36.153Z,958.56
2023-03-27T07:34:35.998Z,958.62
2023-03-27T07:35:35.945Z,958.73
2023-03-27T07:36:35.858Z,958.66
2023-03-27T07:37:37.024Z,958.69
2023-03-27T07:38:35.713Z,958.73
2023-03-27T07:39:35.644Z,958.80
2023-03-27T07:40:40.056Z,958.87
2023-03-27T07:41:35.509Z,958.81
2023-03-27T07:42:35.449Z,958.84
2023-03-27T07:43:35.368Z,958.87
2023-03-27T07:44:35.324Z,958.90
2023-03-27T07:45:35.276Z,958.95
2023-03-27T07:46:35.163Z,958.94
2023-03-27T07:47:35.128Z,959.00
2023-03-27T07:48:35.046Z,959.10
2023-03-27T07:49:39.900Z,959.05
2023-03-27T07:50:34.888Z,959.08
2023-03-27T07:51:34.813Z,959.15
2023-03-27T07:52:34.748Z,959.15
2023-03-27T07:53:34.866Z,959.18
2023-03-27T07:54:34.606Z,959.14
2023-03-27T07:55:34.543Z,959.23
2023-03-27T07:56:34.551Z,959.22
2023-03-27T07:57:39.759Z,959.26
2023-03-27T07:58:34.353Z,959.31
2023-03-27T07:59:34.259Z,959.36
2023-03-27T08:00:34.186Z,959.38
2023-03-27T08:01:34.133Z,959.49
2023-03-27T08:02:34.110Z,959.42
2023-03-27T08:03:34.037Z,959.49
2023-03-27T08:04:34.049Z,959.47
2023-03-27T08:05:33.848Z,959.49
2023-03-27T08:06:33.774Z,959.52
2023-03-27T08:07:33.698Z,959.50
2023-03-27T08:08:33.638Z,959.54
2023-03-27T08:09:33.579Z,959.56
2023-03-27T08:10:33.524Z,959.56
2023-03-27T08:11:33.426Z,959.58
2023-03-27T08:12:33.360Z,959.58
2023-03-27T08:13:33.292Z,959.56
2023-03-27T08:14:33.210Z,959.59
2023-03-27T08:15:33.144Z,959.58
2023-03-27T08:16:33.094Z,959.60
2023-03-27T08:17:33.100Z,959.62
2023-03-27T08:18:32.933Z,959.68
2023-03-27T08:19:32.867Z,959.69
2023-03-27T08:20:32.795Z,959.69
2023-03-27T08:21:32.723Z,959.80
2023-03-27T08:22:32.657Z,959.75
2023-03-27T08:23:32.589Z,959.82
2023-03-27T08:24:32.516Z,959.85
2023-03-27T08:25:32.449Z,959.85
2023-03-27T08:26:32.388Z,959.92
2023-03-27T08:27:32.312Z,959.91
2023-03-27T08:28:32.240Z,959.96
2023-03-27T08:29:32.180Z,959.97
2023-03-27T08:30:32.142Z,960.02
2023-03-27T08:31:32.070Z,960.01
2023-03-27T08:32:32.013Z,959.97
2023-03-27T08:33:31.904Z,959.98
2023-03-27T08:34:31.824Z,960.10
2023-03-27T08:35:31.796Z,960.15
2023-03-27T08:36:31.682Z,960.12
2023-03-27T08:37:31.614Z,960.20
2023-03-27T08:38:31.547Z,960.23
2023-03-27T08:39:31.476Z,960.22
2023-03-27T08:40:31.406Z,960.15
2023-03-27T08:41:31.342Z,960.18
2023-03-27T08:42:31.275Z,960.26
2023-03-27T08:43:31.202Z,960.26
2023-03-27T08:44:31.176Z,960.34
2023-03-27T08:45:31.066Z,960.30
2023-03-27T08:46:31.022Z,960.34
2023-03-27T08:47:30.954Z,960.37
2023-03-27T08:48:30.857Z,960.41
2023-03-27T08:49:30.784Z,960.45
2023-03-27T08:50:30.727Z,960.48
2023-03-27T08:51:30.647Z,960.51
2023-03-27T08:52:30.595Z,960.48
2023-03-27T08:53:30.512Z,960.57
2023-03-27T08:54:30.440Z,960.62
2023-03-27T08:55:30.369Z,960.63
2023-03-27T08:56:30.309Z,960.65
2023-03-27T08:57:30.238Z,960.66
2023-03-27T08:58:30.166Z,960.73
2023-03-27T08:59:30.096Z,960.73
2023-03-27T09:00:30.036Z,960.82
2023-03-27T09:01:29.974Z,960.78
2023-03-27T09:02:30.004Z,960.79
2023-03-27T09:03:29.915Z,960.82
2023-03-27T09:04:29.754Z,960.79
2023-03-27T09:05:29.678Z,960.87
2023-03-27T09:06:29.627Z,960.91
2023-03-27T09:07:29.544Z,960.88
2023-03-27T09:08:29.476Z,960.88
2023-03-27T09:09:29.410Z,960.94
2023-03-27T09:10:29.340Z,960.92
2023-03-27T09:11:29.268Z,960.94
2023-03-27T09:12:29.197Z,960.99
2023-03-27T09:13:29.133Z,961.04
2023-03-27T09:14:29.059Z,961.05
2023-03-27T09:15:29.853Z,960.98
2023-03-27T09:16:28.967Z,961.01
2023-03-27T09:17:28.980Z,961.03
2023-03-27T09:18:28.785Z,960.97
2023-03-27T09:19:28.722Z,961.01
2023-03-27T09:20:28.655Z,961.02
2023-03-27T09:21:28.579Z,961.05
2023-03-27T09:22:28.523Z,961.07
2023-03-27T09:23:28.452Z,961.05
2023-03-27T09:24:28.391Z,961.06
2023-03-27T09:25:28.332Z,961.00
2023-03-27T09:26:28.242Z,961.11
2023-03-27T09:27:28.171Z,961.06
2023-03-27T09:28:28.104Z,961.07
2023-03-27T09:29:28.033Z,961.14
2023-03-27T09:30:27.970Z,961.17
2023-03-27T09:31:27.955Z,961.21
2023-03-27T09:32:27.862Z,961.22
2023-03-27T09:33:27.774Z,961.24
2023-03-27T09:34:27.697Z,961.24
2023-03-27T09:35:27.658Z,961.28
2023-03-27T09:36:27.561Z,961.34
2023-03-27T09:37:27.490Z,961.34
2023-03-27T09:38:27.429Z,961.37
2023-03-27T09:39:27.360Z,961.30
2023-03-27T09:40:27.285Z,961.32
2023-03-27T09:41:27.215Z,961.36
2023-03-27T09:42:27.165Z,961.35
2023-03-27T09:43:27.076Z,961.40
2023-03-27T09:44:27.010Z,961.46
2023-03-27T09:45:26.942Z,961.47
2023-03-27T09:46:26.928Z,961.48
2023-03-27T09:47:26.815Z,961.50
2023-03-27T09:48:26.739Z,961.55
2023-03-27T09:49:26.677Z,961.57
2023-03-27T09:50:27.873Z,961.58
2023-03-27T09:51:26.532Z,961.60
2023-03-27T09:52:26.486Z,961.60
2023-03-27T09:53:26.394Z,961.58
2023-03-27T09:54:26.329Z,961.65
2023-03-27T09:55:26.258Z,961.61
2023-03-27T09:56:26.202Z,961.59
2023-03-27T09:57:26.123Z,961.62
2023-03-27T09:58:26.055Z,961.69
2023-03-27T09:59:25.987Z,961.71
2023-03-27T10:00:25.922Z,961.70
2023-03-27T10:01:25.924Z,961.73
2023-03-27T10:02:25.819Z,961.73
2023-03-27T10:03:25.758Z,961.68
2023-03-27T10:04:25.649Z,961.71
2023-03-27T10:05:25.600Z,961.72
2023-03-27T10:06:25.514Z,961.78
2023-03-27T10:07:25.446Z,961.83
2023-03-27T10:08:27.227Z,961.78
2023-03-27T10:09:25.333Z,961.85
2023-03-27T10:10:25.243Z,961.89
2023-03-27T10:11:25.177Z,961.90
2023-03-27T10:12:25.100Z,961.92
2023-03-27T10:13:25.068Z,961.91
2023-03-27T10:14:25.012Z,961.92
2023-03-27T10:15:24.894Z,962.00
2023-03-27T10:16:24.849Z,962.00
2023-03-27T10:17:24.807Z,961.97
2023-03-27T10:18:24.694Z,961.96
2023-03-27T10:19:24.629Z,962.01
2023-03-27T10:20:24.553Z,962.01
2023-03-27T10:21:24.493Z,962.00
2023-03-27T10:22:24.420Z,962.03
2023-03-27T10:23:24.387Z,962.01
2023-03-27T10:24:24.281Z,961.99
2023-03-27T10:25:24.218Z,961.98
2023-03-27T10:26:24.146Z,962.04
2023-03-27T10:27:24.084Z,962.05
2023-03-27T10:28:24.009Z,962.00
2023-03-27T10:29:23.963Z,962.04
2023-03-27T10:30:23.895Z,961.97
2023-03-27T10:31:23.823Z,962.08
2023-03-27T10:32:23.744Z,962.12
2023-03-27T10:33:23.671Z,962.12
2023-03-27T10:34:23.605Z,962.07
2023-03-27T10:35:23.596Z,962.16
2023-03-27T10:36:23.465Z,962.13
2023-03-27T10:37:23.402Z,962.17
2023-03-27T10:38:23.330Z,962.14
2023-03-27T10:39:23.261Z,962.18
2023-03-27T10:40:23.198Z,962.15
2023-03-27T10:41:28.563Z,962.24
2023-03-27T10:42:23.052Z,962.17
2023-03-27T10:43:22.988Z,962.15
2023-03-27T10:44:22.921Z,962.18
2023-03-27T10:45:22.853Z,962.21
2023-03-27T10:46:22.840Z,962.18
2023-03-27T10:47:22.782Z,962.20
2023-03-27T10:48:22.656Z,962.20
2023-03-27T10:49:22.582Z,962.12
2023-03-27T10:50:22.511Z,962.18
2023-03-27T10:51:23.697Z,962.22
2023-03-27T10:52:22.380Z,962.22
2023-03-27T10:53:22.437Z,962.26
2023-03-27T10:54:22.270Z,962.26
2023-03-27T10:55:22.173Z,962.27
2023-03-27T10:56:22.112Z,962.26
2023-03-27T10:57:22.057Z,962.26
2023-03-27T10:58:21.972Z,962.27
2023-03-27T10:59:31.207Z,962.29
2023-03-27T11:00:21.842Z,962.40
2023-03-27T11:01:21.922Z,962.37
2023-03-27T11:02:21.701Z,962.40
2023-03-27T11:03:21.628Z,962.43
2023-03-27T11:04:21.598Z,962.41
2023-03-27T11:05:21.499Z,962.47
2023-03-27T11:06:21.443Z,962.46
2023-03-27T11:07:21.352Z,962.48
2023-03-27T11:08:21.292Z,962.55
2023-03-27T11:09:21.225Z,962.53
2023-03-27T11:10:21.144Z,962.52
2023-03-27T11:11:21.089Z,962.54
2023-03-27T11:12:21.015Z,962.53
2023-03-27T11:13:20.977Z,962.53
2023-03-27T11:14:20.911Z,962.52
2023-03-27T11:15:20.812Z,962.55
2023-03-27T11:16:20.786Z,962.53
2023-03-27T11:17:20.673Z,962.54
2023-03-27T11:18:20.609Z,962.50
2023-03-27T11:19:20.540Z,962.53
2023-03-27T11:20:20.470Z,962.51
2023-03-27T11:21:20.403Z,962.57
2023-03-27T11:22:20.336Z,962.54
2023-03-27T11:23:20.330Z,962.58
2023-03-27T11:24:20.196Z,962.57
2023-03-27T11:25:20.174Z,962.59
2023-03-27T11:26:20.072Z,962.51
2023-03-27T11:27:19.997Z,962.63
2023-03-27T11:28:19.957Z,962.62
2023-03-27T11:29:19.868Z,962.60
2023-03-27T11:30:19.793Z,962.60
2023-03-27T11:31:19.755Z,962.62
2023-03-27T11:32:19.644Z,962.60
2023-03-27T11:33:19.584Z,962.65
2023-03-27T11:34:29.051Z,962.71
2023-03-27T11:35:19.480Z,962.66
2023-03-27T11:36:19.406Z,962.84
2023-03-27T11:37:19.329Z,962.76
2023-03-27T11:38:19.239Z,962.73
2023-03-27T11:39:19.198Z,962.74
2023-03-27T11:40:19.108Z,962.73
2023-03-27T11:41:19.045Z,962.69
2023-03-27T11:42:19.002Z,962.75
2023-03-27T11:43:18.907Z,962.71
2023-03-27T11:44:18.840Z,962.75
2023-03-27T11:45:18.802Z,962.77
2023-03-27T11:46:18.772Z,962.80
2023-03-27T11:47:18.724Z,962.77
2023-03-27T11:48:18.697Z,962.79
2023-03-27T11:49:18.614Z,962.76
2023-03-27T11:50:18.434Z,962.77
2023-03-27T11:51:18.384Z,962.82
2023-03-27T11:52:18.304Z,962.91
2023-03-27T11:53:18.233Z,962.87
2023-03-27T11:54:18.165Z,962.97
2023-03-27T11:55:18.095Z,962.92
2023-03-27T11:56:18.026Z,962.94
2023-03-27T11:57:18.038Z,962.98
2023-03-27T11:58:17.888Z,963.01
2023-03-27T11:59:17.823Z,962.99
2023-03-27T12:00:17.764Z,963.03
2023-03-27T12:01:17.972Z,962.99
2023-03-27T12:02:17.665Z,963.08
2023-03-27T12:03:17.670Z,962.96
2023-03-27T12:04:17.544Z,963.03
2023-03-27T12:05:17.425Z,963.10
2023-03-27T12:06:17.353Z,963.05
2023-03-27T12:07:26.296Z,963.05
2023-03-27T12:08:17.211Z,963.02
2023-03-27T12:09:17.141Z,963.03
2023-03-27T12:10:17.076Z,963.05
2023-03-27T12:11:17.007Z,963.10
2023-03-27T12:12:16.937Z,963.02
2023-03-27T12:13:16.894Z,963.07
2023-03-27T12:14:18.497Z,963.06
2023-03-27T12:15:16.740Z,963.08
2023-03-27T12:16:16.681Z,963.12
2023-03-27T12:17:16.621Z,963.09
2023-03-27T12:18:16.541Z,963.11
2023-03-27T12:19:27.577Z,963.10
2023-03-27T12:20:16.403Z,963.08
2023-03-27T12:21:16.334Z,963.19
2023-03-27T12:22:23.571Z,963.12
2023-03-27T12:23:16.201Z,963.18
2023-03-27T12:24:16.145Z,963.11
2023-03-27T12:25:16.061Z,963.15
2023-03-27T12:26:15.990Z,963.19
2023-03-27T12:27:15.925Z,963.14